Hervey Bay Airport


Codes: YHBA/HVB
Name: Hervey Bay Airport
City: Hervey Bay
Country: Australia
Elevation: 60 ft.
Wikipedia:

Photos at Hervey Bay Airport


   Photos courtesy of SpottingLog. You can add your own sightings and photos by signing up for a free trial today.



No photos found.

Weather at Hervey Bay Airport


Time (UTC)DescriptionTempratureWindCloud coverageVisibilityPressureHumidity
16-Jun-2024 12:00Clear Sky16°C16 mph, SW0%10000m1013hPa59%
16-Jun-2024 15:00Clear Sky15°C13 mph, SW0%10000m1014hPa59%
16-Jun-2024 18:00Clear Sky14°C18 mph, SW0%10000m1014hPa63%
16-Jun-2024 21:00Clear Sky13°C18 mph, SW0%10000m1016hPa66%
17-Jun-2024 00:00Clear Sky16°C18 mph, SW0%10000m1016hPa54%
17-Jun-2024 03:00Clear Sky18°C13 mph, SW0%10000m1013hPa40%
17-Jun-2024 06:00Clear Sky19°C18 mph, SW0%10000m1013hPa38%
17-Jun-2024 09:00Clear Sky16°C16 mph, SW0%10000m1016hPa43%
17-Jun-2024 12:00Clear Sky14°C18 mph, SW0%10000m1017hPa44%
17-Jun-2024 15:00Clear Sky12°C16 mph, SW0%10000m1017hPa49%
17-Jun-2024 18:00Clear Sky12°C13 mph, SW0%10000m1016hPa55%
17-Jun-2024 21:00Clear Sky11°C11 mph, SW0%10000m1017hPa61%
18-Jun-2024 00:00Clear Sky14°C11 mph, SW0%10000m1017hPa53%
18-Jun-2024 03:00Clear Sky18°C2 mph, SW0%10000m1015hPa39%
18-Jun-2024 06:00Clear Sky17°C7 mph, NE0%10000m1015hPa46%
18-Jun-2024 09:00Clear Sky17°C2 mph, N0%10000m1017hPa54%
18-Jun-2024 12:00Clear Sky15°C13 mph, SW0%10000m1017hPa59%
18-Jun-2024 15:00Clear Sky14°C13 mph, SW0%10000m1017hPa60%
18-Jun-2024 18:00Clear Sky13°C11 mph, SW5%10000m1017hPa58%
18-Jun-2024 21:00Clear Sky12°C11 mph, SW3%10000m1019hPa59%
19-Jun-2024 00:00Clear Sky14°C7 mph, SW2%10000m1019hPa49%
19-Jun-2024 03:00Clear Sky18°C4 mph, NW2%10000m1017hPa37%
19-Jun-2024 06:00Clear Sky17°C9 mph, N1%10000m1016hPa48%
19-Jun-2024 09:00Clear Sky18°C7 mph, NW0%10000m1017hPa49%
19-Jun-2024 12:00Clear Sky16°C11 mph, SW0%10000m1018hPa49%
19-Jun-2024 15:00Clear Sky15°C7 mph, SW2%10000m1018hPa51%
19-Jun-2024 18:00Clear Sky15°C9 mph, SW1%10000m1018hPa52%
19-Jun-2024 21:00Clear Sky14°C7 mph, SW0%10000m1020hPa53%
20-Jun-2024 00:00Clear Sky16°C4 mph, SW0%10000m1020hPa49%
20-Jun-2024 03:00Clear Sky18°C4 mph, NW0%10000m1018hPa52%
20-Jun-2024 06:00Clear Sky19°C7 mph, N0%10000m1017hPa54%
20-Jun-2024 09:00Clear Sky19°C7 mph, N0%10000m1019hPa64%
20-Jun-2024 12:00Clear Sky19°C7 mph, NW0%10000m1019hPa68%
20-Jun-2024 15:00Clear Sky18°C7 mph, NW0%10000m1019hPa72%
20-Jun-2024 18:00Few Clouds17°C7 mph, W11%10000m1019hPa73%
20-Jun-2024 21:00Overcast Clouds16°C9 mph, W100%10000m1021hPa69%
21-Jun-2024 00:00Overcast Clouds18°C7 mph, W94%10000m1021hPa61%
21-Jun-2024 03:00Overcast Clouds20°C7 mph, N100%10000m1019hPa56%
21-Jun-2024 06:00Overcast Clouds20°C7 mph, N100%10000m1019hPa59%
21-Jun-2024 09:00Overcast Clouds20°C11 mph, SW100%10000m1021hPa59%